createdAt,value
2022-12-14T00:00:38.460Z,-10.25
2022-12-14T00:03:07.507Z,-10.48
2022-12-14T00:05:37.178Z,-10.53
2022-12-14T00:08:07.072Z,-10.68
2022-12-14T00:10:39.070Z,-10.45
2022-12-14T00:13:11.309Z,-10.54
2022-12-14T00:15:41.797Z,-10.58
2022-12-14T00:18:12.101Z,-10.71
2022-12-14T00:20:41.579Z,-10.65
2022-12-14T00:23:11.727Z,-10.69
2022-12-14T00:25:41.249Z,-10.69
2022-12-14T00:28:10.744Z,-10.62
2022-12-14T00:30:40.253Z,-10.51
2022-12-14T00:33:10.406Z,-10.61
2022-12-14T00:35:39.876Z,-10.93
2022-12-14T00:38:09.381Z,-10.26
2022-12-14T00:40:39.328Z,-10.56
2022-12-14T00:43:08.836Z,-10.68
2022-12-14T00:45:38.297Z,-10.75
2022-12-14T00:48:07.887Z,-10.77
2022-12-14T00:50:37.356Z,-10.55
2022-12-14T00:53:07.007Z,-10.71
2022-12-14T00:55:40.970Z,-10.66
2022-12-14T00:58:12.691Z,-10.69
2022-12-14T01:00:44.255Z,-10.45
2022-12-14T01:03:14.430Z,-10.72
2022-12-14T01:05:49.452Z,-10.74
2022-12-14T01:08:15.395Z,-10.73
2022-12-14T01:10:44.860Z,-10.72
2022-12-14T01:13:14.668Z,-10.67
2022-12-14T01:15:44.302Z,-10.59
2022-12-14T01:18:13.890Z,-10.59
2022-12-14T01:20:43.352Z,-10.37
2022-12-14T01:23:12.937Z,-10.51
2022-12-14T01:25:42.407Z,-10.64
2022-12-14T01:28:12.205Z,-10.71
2022-12-14T01:30:41.717Z,-10.75
2022-12-14T01:33:11.263Z,-10.88
2022-12-14T01:35:40.821Z,-10.83
2022-12-14T01:38:10.628Z,-10.87
2022-12-14T01:40:40.162Z,-10.82
2022-12-14T01:43:15.723Z,-10.88
2022-12-14T01:45:45.415Z,-10.88
2022-12-14T01:48:15.561Z,-10.75
2022-12-14T01:50:47.269Z,-10.85
2022-12-14T01:53:19.909Z,-10.64
2022-12-14T01:55:52.407Z,-10.65
2022-12-14T01:58:25.256Z,-10.69
2022-12-14T02:00:57.724Z,-10.24
2022-12-14T02:03:33.575Z,-10.16
2022-12-14T02:06:06.243Z,-10.32
2022-12-14T02:08:36.645Z,-10.47
2022-12-14T02:11:07.454Z,-10.54
2022-12-14T02:13:42.509Z,-10.64
2022-12-14T02:16:12.392Z,-10.60
2022-12-14T02:18:42.054Z,-10.56
2022-12-14T02:21:41.660Z,-10.59
2022-12-14T02:24:32.287Z,-10.62
2022-12-14T02:27:20.015Z,-10.52
2022-12-14T02:29:55.456Z,-10.55
2022-12-14T02:32:53.690Z,-10.57
2022-12-14T02:35:26.484Z,-10.65
2022-12-14T02:38:16.992Z,-10.54
2022-12-14T02:41:03.684Z,-10.44
2022-12-14T02:43:35.923Z,-10.40
2022-12-14T02:46:23.115Z,-10.56
2022-12-14T02:49:01.947Z,-10.68
2022-12-14T02:51:34.499Z,-10.60
2022-12-14T02:54:24.386Z,-10.48
2022-12-14T02:56:56.942Z,-10.54
2022-12-14T02:59:27.714Z,-10.84
2022-12-14T03:01:58.126Z,-10.76
2022-12-14T03:04:28.012Z,-10.72
2022-12-14T03:07:00.589Z,-10.81
2022-12-14T03:09:32.526Z,-10.86
2022-12-14T03:12:08.128Z,-11.05
2022-12-14T03:14:50.424Z,-11.46
2022-12-14T03:17:23.280Z,-11.55
2022-12-14T03:19:55.786Z,-11.36
2022-12-14T03:22:28.627Z,-11.32
2022-12-14T03:25:01.134Z,-11.43
2022-12-14T03:27:36.375Z,-11.33
2022-12-14T03:30:09.265Z,-11.64
2022-12-14T03:32:41.799Z,-11.53
2022-12-14T03:35:32.057Z,-11.42
2022-12-14T03:38:22.745Z,-11.43
2022-12-14T03:40:55.979Z,-11.44
2022-12-14T03:43:40.300Z,-11.44
2022-12-14T03:46:29.523Z,-11.65
2022-12-14T03:49:04.638Z,-11.55
2022-12-14T03:51:43.138Z,-11.56
2022-12-14T03:54:27.693Z,-11.56
2022-12-14T03:57:02.915Z,-11.56
2022-12-14T03:59:41.368Z,-11.57
2022-12-14T04:02:16.594Z,-11.54
2022-12-14T04:04:55.010Z,-11.55
2022-12-14T04:07:30.347Z,-11.66
2022-12-14T04:10:32.225Z,-11.66
2022-12-14T04:13:34.534Z,-11.71
2022-12-14T04:16:27.662Z,-11.69
2022-12-14T04:19:02.239Z,-11.88
2022-12-14T04:21:43.358Z,-11.88
2022-12-14T04:24:48.734Z,-11.84
2022-12-14T04:27:24.425Z,-11.94
2022-12-14T04:29:59.025Z,-11.94
2022-12-14T04:32:46.852Z,-11.88
2022-12-14T04:35:25.550Z,-11.81
2022-12-14T04:38:01.056Z,-11.80
2022-12-14T04:40:36.194Z,-11.81
2022-12-14T04:43:09.347Z,-11.93
2022-12-14T04:45:48.287Z,-11.82
2022-12-14T04:48:20.817Z,-11.82
2022-12-14T04:50:56.204Z,-11.75
2022-12-14T04:53:29.401Z,-11.63
2022-12-14T04:56:11.269Z,-11.56
2022-12-14T04:58:41.847Z,-11.59
2022-12-14T05:01:15.062Z,-11.84
2022-12-14T05:04:14.697Z,-11.66
2022-12-14T05:06:53.220Z,-11.57
2022-12-14T05:09:28.839Z,-11.42
2022-12-14T05:12:10.280Z,-11.33
2022-12-14T05:14:48.781Z,-11.23
2022-12-14T05:17:19.289Z,-11.11
2022-12-14T05:19:50.506Z,-11.04
2022-12-14T05:22:19.297Z,-10.97
2022-12-14T05:24:48.942Z,-10.97
2022-12-14T05:27:18.724Z,-10.92
2022-12-14T05:29:48.236Z,-10.82
2022-12-14T05:32:17.816Z,-10.77
2022-12-14T05:34:47.476Z,-10.72
2022-12-14T05:37:18.550Z,-10.67
2022-12-14T05:39:48.643Z,-10.69
2022-12-14T05:42:18.521Z,-10.67
2022-12-14T05:44:48.037Z,-10.69
2022-12-14T05:47:17.499Z,-10.69
2022-12-14T05:49:49.482Z,-10.68
2022-12-14T05:52:18.684Z,-10.71
2022-12-14T05:54:48.679Z,-10.73
2022-12-14T05:57:18.264Z,-10.80
2022-12-14T05:59:48.166Z,-10.95
2022-12-14T06:02:17.777Z,-10.90
2022-12-14T06:04:47.417Z,-10.87
2022-12-14T06:07:16.924Z,-10.82
2022-12-14T06:09:46.510Z,-10.92
2022-12-14T06:12:16.277Z,-10.82
2022-12-14T06:14:45.953Z,-10.82
2022-12-14T06:17:15.630Z,-10.87
2022-12-14T06:19:49.748Z,-10.84
2022-12-14T06:22:16.400Z,-10.79
2022-12-14T06:24:45.905Z,-10.84
2022-12-14T06:27:15.466Z,-10.78
2022-12-14T06:29:45.023Z,-10.93
2022-12-14T06:32:14.818Z,-10.89
2022-12-14T06:34:46.827Z,-11.09
2022-12-14T06:37:16.472Z,-11.26
2022-12-14T06:39:49.718Z,-11.13
2022-12-14T06:42:17.885Z,-11.10
2022-12-14T06:44:47.350Z,-11.10
2022-12-14T06:47:16.934Z,-11.11
2022-12-14T06:49:46.390Z,-10.99
2022-12-14T06:52:21.992Z,-11.05
2022-12-14T06:54:49.567Z,-11.08
2022-12-14T06:57:19.068Z,-11.13
2022-12-14T06:59:48.550Z,-11.05
2022-12-14T07:02:18.414Z,-11.00
2022-12-14T07:04:48.051Z,-10.96
2022-12-14T07:07:17.575Z,-10.89
2022-12-14T07:09:47.051Z,-10.88
2022-12-14T07:12:16.851Z,-10.79
2022-12-14T07:14:46.573Z,-10.76
2022-12-14T07:17:16.443Z,-10.67
2022-12-14T07:19:46.324Z,-10.76
2022-12-14T07:22:17.803Z,-10.66
2022-12-14T07:24:47.456Z,-10.60
2022-12-14T07:27:19.007Z,-10.68
2022-12-14T07:29:48.599Z,-10.46
2022-12-14T07:32:18.351Z,-10.55
2022-12-14T07:34:48.135Z,-10.46
2022-12-14T07:37:17.730Z,-10.27
2022-12-14T07:39:47.174Z,-10.16
2022-12-14T07:42:16.921Z,-10.16
2022-12-14T07:44:48.479Z,-10.29
2022-12-14T07:47:18.329Z,-10.13
2022-12-14T07:49:47.856Z,-10.10
2022-12-14T07:52:17.714Z,-10.15
2022-12-14T07:54:47.178Z,-10.13
2022-12-14T07:57:17.113Z,-10.05
2022-12-14T07:59:46.578Z,-9.99
2022-12-14T08:02:16.651Z,-9.88
2022-12-14T08:04:46.403Z,-9.78
2022-12-14T08:07:15.923Z,-9.69
2022-12-14T08:09:45.470Z,-9.61
2022-12-14T08:12:14.997Z,-9.51
2022-12-14T08:14:44.462Z,-9.48
2022-12-14T08:17:14.278Z,-9.34
2022-12-14T08:19:43.900Z,-9.34
2022-12-14T08:22:13.662Z,-9.34
2022-12-14T08:24:43.128Z,-9.05
2022-12-14T08:27:14.625Z,-9.18
2022-12-14T08:29:44.339Z,-9.01
2022-12-14T08:32:14.135Z,-8.87
2022-12-14T08:34:43.835Z,-8.77
2022-12-14T08:37:13.645Z,-8.71
2022-12-14T08:39:43.115Z,-8.68
2022-12-14T08:42:14.269Z,-8.64
2022-12-14T08:44:43.797Z,-8.51
2022-12-14T08:47:13.254Z,-8.38
2022-12-14T08:49:42.768Z,-8.38
2022-12-14T08:52:12.605Z,-8.10
2022-12-14T08:54:42.225Z,-8.36
2022-12-14T08:57:11.996Z,-8.23
2022-12-14T09:02:14.482Z,-8.14
2022-12-14T09:04:44.035Z,-8.05
2022-12-14T09:07:13.733Z,-7.67
2022-12-14T09:09:43.357Z,-7.60
2022-12-14T09:12:13.036Z,-7.23
2022-12-14T09:14:44.222Z,-7.34
2022-12-14T09:17:13.510Z,-7.51
2022-12-14T09:19:42.965Z,-7.55
2022-12-14T09:22:14.143Z,-7.63
2022-12-14T09:24:43.683Z,-7.25
2022-12-14T09:27:13.297Z,-7.29
2022-12-14T09:29:43.469Z,-6.75
2022-12-14T09:32:12.968Z,-6.75
2022-12-14T09:34:42.441Z,-6.38
2022-12-14T09:37:12.616Z,-6.44
2022-12-14T09:39:42.071Z,-6.85
2022-12-14T09:42:20.616Z,-6.84
2022-12-14T09:45:07.982Z,-6.79
2022-12-14T09:47:41.805Z,-6.33
2022-12-14T09:50:17.376Z,-6.54
2022-12-14T09:52:51.118Z,-6.50
2022-12-14T09:55:36.082Z,-6.05
2022-12-14T09:58:24.618Z,-5.96
2022-12-14T10:01:20.811Z,-6.16
2022-12-14T10:04:02.232Z,-5.93
2022-12-14T10:06:54.766Z,-5.93
2022-12-14T10:09:36.266Z,-5.76
2022-12-14T10:12:15.263Z,-5.72
2022-12-14T10:14:50.474Z,-5.23
2022-12-14T10:17:39.430Z,-5.11
2022-12-14T10:20:12.399Z,-4.99
2022-12-14T10:22:45.069Z,-5.20
2022-12-14T10:25:26.846Z,-5.08
2022-12-14T10:28:12.523Z,-4.96
2022-12-14T10:30:37.005Z,-4.78
2022-12-14T10:33:24.724Z,-5.03
2022-12-14T10:35:56.050Z,-5.04
2022-12-14T10:38:37.380Z,-4.69
2022-12-14T10:41:35.301Z,-4.53
2022-12-14T10:44:29.884Z,-4.28
2022-12-14T10:47:15.314Z,-4.43
2022-12-14T10:49:56.249Z,-4.73
2022-12-14T10:52:30.004Z,-4.55
2022-12-14T10:55:05.702Z,-4.14
2022-12-14T10:57:35.160Z,-4.50
2022-12-14T11:00:10.343Z,-4.69
2022-12-14T11:02:43.196Z,-4.56
2022-12-14T11:05:19.062Z,-4.24
2022-12-14T11:07:49.788Z,-4.27
2022-12-14T11:10:24.994Z,-3.95
2022-12-14T11:12:57.495Z,-3.94
2022-12-14T11:15:33.284Z,-3.83
2022-12-14T11:18:09.131Z,-3.95
2022-12-14T11:20:38.888Z,-4.06
2022-12-14T11:23:23.416Z,-4.07
2022-12-14T11:26:01.177Z,-3.97
2022-12-14T11:28:39.703Z,-4.17
2022-12-14T11:31:16.137Z,-4.31
2022-12-14T11:33:49.886Z,-4.31
2022-12-14T11:36:37.638Z,-4.52
2022-12-14T11:39:15.662Z,-4.10
2022-12-14T11:41:48.495Z,-4.10
2022-12-14T11:44:22.160Z,-4.16
2022-12-14T11:46:57.492Z,-4.24
2022-12-14T11:49:36.204Z,-4.34
2022-12-14T11:52:18.501Z,-4.56
2022-12-14T11:54:51.021Z,-4.63
2022-12-14T11:57:36.063Z,-4.52
2022-12-14T12:00:11.008Z,-4.52
2022-12-14T12:02:51.409Z,-4.57
2022-12-14T12:05:23.611Z,-4.56
2022-12-14T12:07:59.302Z,-4.40
2022-12-14T12:10:45.058Z,-4.16
2022-12-14T12:13:40.231Z,-4.25
2022-12-14T12:16:13.665Z,-4.42
2022-12-14T12:19:11.436Z,-4.21
2022-12-14T12:21:40.264Z,-3.94
2022-12-14T12:24:24.881Z,-3.95
2022-12-14T12:27:03.467Z,-4.03
2022-12-14T12:29:44.591Z,-4.04
2022-12-14T12:32:26.505Z,-3.84
2022-12-14T12:35:11.930Z,-3.89
2022-12-14T12:37:44.806Z,-3.80
2022-12-14T12:40:17.252Z,-3.70
2022-12-14T12:42:52.561Z,-3.75
2022-12-14T12:45:41.854Z,-3.87
2022-12-14T12:48:33.306Z,-4.08
2022-12-14T12:51:08.799Z,-3.84
2022-12-14T12:53:41.335Z,-3.95
2022-12-14T12:56:16.975Z,-3.78
2022-12-14T12:58:52.678Z,-3.80
2022-12-14T13:01:38.160Z,-3.86
2022-12-14T13:04:10.988Z,-3.87
2022-12-14T13:06:58.493Z,-3.79
2022-12-14T13:09:45.899Z,-3.69
2022-12-14T13:12:34.705Z,-3.62
2022-12-14T13:15:07.454Z,-3.63
2022-12-14T13:17:42.863Z,-3.73
2022-12-14T13:20:28.025Z,-3.40
2022-12-14T13:23:05.750Z,-3.51
2022-12-14T13:25:49.213Z,-3.52
2022-12-14T13:28:33.660Z,-3.47
2022-12-14T13:31:18.161Z,-3.66
2022-12-14T13:33:56.763Z,-3.67
2022-12-14T13:36:51.083Z,-3.76
2022-12-14T13:39:42.757Z,-3.79
2022-12-14T13:42:18.259Z,-3.79
2022-12-14T13:44:53.374Z,-3.59
2022-12-14T13:47:26.160Z,-3.60
2022-12-14T13:50:34.207Z,-3.55
2022-12-14T13:52:41.697Z,-3.55
2022-12-14T13:55:26.474Z,-3.67
2022-12-14T13:58:11.022Z,-3.71
2022-12-14T14:00:55.440Z,-3.61
2022-12-14T14:03:40.232Z,-3.66
2022-12-14T14:06:38.087Z,-3.68
2022-12-14T14:09:36.559Z,-3.80
2022-12-14T14:12:09.637Z,-3.57
2022-12-14T14:14:58.703Z,-3.62
2022-12-14T14:17:43.367Z,-3.58
2022-12-14T14:20:43.216Z,-3.54
2022-12-14T14:23:18.554Z,-3.82
2022-12-14T14:25:56.265Z,-3.74
2022-12-14T14:28:29.016Z,-3.56
2022-12-14T14:30:59.857Z,-3.53
2022-12-14T14:33:46.190Z,-3.76
2022-12-14T14:36:21.417Z,-3.93
2022-12-14T14:38:51.648Z,-3.81
2022-12-14T14:41:27.441Z,-3.72
2022-12-14T14:44:00.232Z,-3.63
2022-12-14T14:46:39.210Z,-3.68
2022-12-14T14:49:23.576Z,-4.00
2022-12-14T14:51:53.298Z,-3.75
2022-12-14T14:56:59.120Z,-4.01
2022-12-14T14:59:43.750Z,-3.87
2022-12-14T15:02:27.016Z,-3.77
2022-12-14T15:04:57.478Z,-3.76
2022-12-14T15:07:30.104Z,-4.01
2022-12-14T15:10:22.880Z,-4.15
2022-12-14T15:12:58.521Z,-3.92
2022-12-14T15:15:46.171Z,-3.81
2022-12-14T15:18:31.700Z,-3.82
2022-12-14T15:21:10.077Z,-3.91
2022-12-14T15:23:51.680Z,-4.10
2022-12-14T15:26:24.338Z,-4.20
2022-12-14T15:28:57.963Z,-4.06
2022-12-14T15:31:33.868Z,-3.69
2022-12-14T15:34:04.549Z,-3.78
2022-12-14T15:36:35.647Z,-4.05
2022-12-14T15:39:06.071Z,-4.09
2022-12-14T15:41:35.998Z,-4.04
2022-12-14T15:44:09.116Z,-3.93
2022-12-14T15:46:40.879Z,-3.82
2022-12-14T15:49:13.764Z,-3.96
2022-12-14T15:51:45.333Z,-3.89
2022-12-14T15:54:20.765Z,-3.64
2022-12-14T15:56:52.766Z,-3.98
2022-12-14T15:59:31.085Z,-3.81
2022-12-14T16:02:24.892Z,-3.97
2022-12-14T16:04:56.632Z,-4.02
2022-12-14T16:07:29.222Z,-3.97
2022-12-14T16:10:00.757Z,-3.95
2022-12-14T16:12:40.907Z,-3.83
2022-12-14T16:15:10.279Z,-3.71
2022-12-14T16:17:40.785Z,-3.83
2022-12-14T16:20:11.397Z,-3.90
2022-12-14T16:22:41.653Z,-4.08
2022-12-14T16:25:16.114Z,-3.75
2022-12-14T16:27:49.805Z,-3.85
2022-12-14T16:30:25.502Z,-3.85
2022-12-14T16:33:07.305Z,-3.95
2022-12-14T16:35:38.703Z,-3.76
2022-12-14T16:38:14.871Z,-3.94
2022-12-14T16:40:50.254Z,-3.94
2022-12-14T16:43:35.299Z,-3.96
2022-12-14T16:46:10.807Z,-3.61
2022-12-14T16:48:43.261Z,-4.03
2022-12-14T16:51:38.409Z,-3.99
2022-12-14T16:53:59.799Z,-4.10
2022-12-14T16:56:35.318Z,-4.04
2022-12-14T16:59:07.907Z,-3.88
2022-12-14T17:01:45.626Z,-3.89
2022-12-14T17:04:18.373Z,-3.96
2022-12-14T17:06:51.127Z,-3.90
2022-12-14T17:09:26.268Z,-3.94
2022-12-14T17:11:58.801Z,-4.02
2022-12-14T17:14:29.263Z,-3.91
2022-12-14T17:17:01.930Z,-3.89
2022-12-14T17:19:37.744Z,-3.87
2022-12-14T17:22:10.249Z,-3.92
2022-12-14T17:24:40.181Z,-3.82
2022-12-14T17:27:11.484Z,-3.91
2022-12-14T17:29:41.295Z,-3.66
2022-12-14T17:32:14.183Z,-3.62
2022-12-14T17:34:45.416Z,-3.92
2022-12-14T17:37:17.889Z,-3.97
2022-12-14T17:39:47.818Z,-3.57
2022-12-14T17:42:20.394Z,-3.69
2022-12-14T17:44:55.805Z,-3.89
2022-12-14T17:47:26.046Z,-4.00
2022-12-14T17:49:55.648Z,-3.73
2022-12-14T17:52:31.729Z,-3.88
2022-12-14T17:55:01.370Z,-3.58
2022-12-14T17:57:30.905Z,-3.86
2022-12-14T18:00:18.216Z,-3.90
2022-12-14T18:02:48.097Z,-3.85
2022-12-14T18:05:22.522Z,-3.90
2022-12-14T18:07:52.009Z,-3.82
2022-12-14T18:10:22.507Z,-3.69
2022-12-14T18:12:52.633Z,-3.80
2022-12-14T18:15:31.025Z,-3.88
2022-12-14T18:18:00.779Z,-3.96
2022-12-14T18:20:30.356Z,-4.00
2022-12-14T18:22:59.961Z,-4.08
2022-12-14T18:25:35.229Z,-4.03
2022-12-14T18:28:08.025Z,-4.05
2022-12-14T18:30:43.125Z,-3.94
2022-12-14T18:33:18.288Z,-3.97
2022-12-14T18:35:49.876Z,-4.08
2022-12-14T18:38:20.179Z,-3.95
2022-12-14T18:40:51.647Z,-4.00
2022-12-14T18:43:24.106Z,-4.08
2022-12-14T18:45:55.613Z,-3.85
2022-12-14T18:48:25.001Z,-3.96
2022-12-14T18:50:56.045Z,-4.16
2022-12-14T18:53:27.068Z,-4.24
2022-12-14T18:56:00.247Z,-4.07
2022-12-14T18:58:30.431Z,-3.92
2022-12-14T19:01:03.080Z,-4.08
2022-12-14T19:03:33.543Z,-4.08
2022-12-14T19:08:46.501Z,-4.14
2022-12-14T19:11:35.157Z,-4.22
2022-12-14T19:14:04.628Z,-4.08
2022-12-14T19:16:34.450Z,-4.09
2022-12-14T19:19:04.001Z,-4.20
2022-12-14T19:21:33.565Z,-4.30
2022-12-14T19:24:03.041Z,-4.05
2022-12-14T19:26:32.616Z,-4.27
2022-12-14T19:29:02.117Z,-4.11
2022-12-14T19:31:31.816Z,-4.14
2022-12-14T19:34:01.813Z,-4.17
2022-12-14T19:36:31.346Z,-4.29
2022-12-14T19:39:00.835Z,-4.23
2022-12-14T19:41:30.394Z,-4.23
2022-12-14T19:44:00.793Z,-4.31
2022-12-14T19:46:31.022Z,-4.18
2022-12-14T19:49:01.101Z,-4.27
2022-12-14T19:51:30.608Z,-4.31
2022-12-14T19:54:01.816Z,-4.44
2022-12-14T19:56:31.366Z,-4.39
2022-12-14T19:59:03.052Z,-4.54
2022-12-14T20:01:34.403Z,-4.56
2022-12-14T20:04:07.217Z,-4.43
2022-12-14T20:06:37.016Z,-4.16
2022-12-14T20:09:07.823Z,-4.40
2022-12-14T20:11:38.783Z,-4.53
2022-12-14T20:14:09.661Z,-4.56
2022-12-14T20:16:40.253Z,-4.55
2022-12-14T20:19:12.036Z,-4.57
2022-12-14T20:21:41.834Z,-4.45
2022-12-14T20:24:12.331Z,-4.38
2022-12-14T20:26:42.577Z,-4.42
2022-12-14T20:29:12.690Z,-4.44
2022-12-14T20:31:42.269Z,-4.42
2022-12-14T20:34:11.937Z,-4.41
2022-12-14T20:36:41.512Z,-4.39
2022-12-14T20:39:11.354Z,-4.36
2022-12-14T20:41:41.072Z,-4.32
2022-12-14T20:44:12.489Z,-4.41
2022-12-14T20:46:43.150Z,-4.37
2022-12-14T20:49:18.327Z,-4.33
2022-12-14T20:51:49.457Z,-4.46
2022-12-14T20:54:22.203Z,-4.41
2022-12-14T20:56:51.707Z,-4.32
2022-12-14T20:59:21.409Z,-4.32
2022-12-14T21:01:55.856Z,-4.35
2022-12-14T21:04:22.420Z,-4.32
2022-12-14T21:06:52.571Z,-4.27
2022-12-14T21:09:22.234Z,-4.25
2022-12-14T21:12:10.249Z,-4.24
2022-12-14T21:14:43.504Z,-4.19
2022-12-14T21:17:15.278Z,-4.23
2022-12-14T21:19:44.843Z,-4.17
2022-12-14T21:22:17.386Z,-4.11
2022-12-14T21:25:04.816Z,-4.09
2022-12-14T21:27:24.110Z,-4.14
2022-12-14T21:29:54.792Z,-4.12
2022-12-14T21:32:24.660Z,-4.24
2022-12-14T21:34:54.390Z,-4.20
2022-12-14T21:37:24.587Z,-4.35
2022-12-14T21:39:55.583Z,-4.30
2022-12-14T21:42:26.070Z,-4.30
2022-12-14T21:44:56.099Z,-4.40
2022-12-14T21:47:28.359Z,-4.21
2022-12-14T21:49:58.216Z,-4.52
2022-12-14T21:52:28.819Z,-4.44
2022-12-14T21:54:59.724Z,-4.47
2022-12-14T21:57:49.498Z,-4.42
2022-12-14T22:00:19.838Z,-4.57
2022-12-14T22:02:49.887Z,-4.65
2022-12-14T22:05:19.495Z,-4.54
2022-12-14T22:07:48.959Z,-4.47
2022-12-14T22:10:24.597Z,-4.53
2022-12-14T22:12:50.314Z,-4.54
2022-12-14T22:15:20.184Z,-4.57
2022-12-14T22:17:51.749Z,-4.58
2022-12-14T22:20:21.571Z,-4.53
2022-12-14T22:22:51.615Z,-4.59
2022-12-14T22:25:21.115Z,-4.62
2022-12-14T22:27:50.655Z,-4.69
2022-12-14T22:30:21.115Z,-4.67
2022-12-14T22:32:50.869Z,-4.60
2022-12-14T22:35:20.673Z,-4.57
2022-12-14T22:37:50.392Z,-4.73
2022-12-14T22:40:20.208Z,-4.84
2022-12-14T22:42:49.966Z,-4.83
2022-12-14T22:45:19.727Z,-4.81
2022-12-14T22:47:49.234Z,-4.74
2022-12-14T22:50:19.025Z,-4.63
2022-12-14T22:52:49.874Z,-4.72
2022-12-14T22:55:19.785Z,-4.76
2022-12-14T22:57:49.314Z,-4.88
2022-12-14T23:00:18.969Z,-4.87
2022-12-14T23:02:49.847Z,-4.85
2022-12-14T23:05:19.828Z,-4.94
2022-12-14T23:07:49.578Z,-4.82
2022-12-14T23:10:37.171Z,-4.83
2022-12-14T23:13:24.461Z,-4.92
2022-12-14T23:16:11.286Z,-4.97
2022-12-14T23:18:58.647Z,-4.68
2022-12-14T23:21:46.042Z,-4.93
2022-12-14T23:24:33.152Z,-4.92
2022-12-14T23:27:20.336Z,-5.00
2022-12-14T23:30:07.276Z,-5.10
2022-12-14T23:32:54.540Z,-5.20
2022-12-14T23:35:42.224Z,-5.25
2022-12-14T23:38:29.808Z,-5.18
2022-12-14T23:41:20.297Z,-5.18
2022-12-14T23:44:07.481Z,-5.30
2022-12-14T23:46:54.898Z,-5.29
2022-12-14T23:49:42.225Z,-5.54
2022-12-14T23:52:29.527Z,-5.60
2022-12-14T23:55:16.616Z,-5.75
2022-12-14T23:58:03.555Z,-5.78
